sensor_id;sensor_type;location;lat;lon;timestamp;P1;durP1;ratioP1;P2;durP2;ratioP2
30420;SDS011;17218;54.070;10.012;2022-07-05T00:01:15;4.93;;;2.53;;
30420;SDS011;17218;54.070;10.012;2022-07-05T00:03:42;5.32;;;2.42;;
30420;SDS011;17218;54.070;10.012;2022-07-05T00:06:10;3.50;;;1.90;;
30420;SDS011;17218;54.070;10.012;2022-07-05T00:08:36;4.55;;;2.38;;
30420;SDS011;17218;54.070;10.012;2022-07-05T00:11:04;6.38;;;2.30;;
30420;SDS011;17218;54.070;10.012;2022-07-05T00:13:30;3.35;;;2.80;;
30420;SDS011;17218;54.070;10.012;2022-07-05T00:15:57;8.05;;;2.63;;
30420;SDS011;17218;54.070;10.012;2022-07-05T00:18:23;3.25;;;2.47;;
30420;SDS011;17218;54.070;10.012;2022-07-05T00:20:50;3.83;;;2.70;;
30420;SDS011;17218;54.070;10.012;2022-07-05T00:23:18;5.28;;;3.10;;
30420;SDS011;17218;54.070;10.012;2022-07-05T00:25:44;5.30;;;2.58;;
30420;SDS011;17218;54.070;10.012;2022-07-05T00:28:11;3.80;;;2.10;;
30420;SDS011;17218;54.070;10.012;2022-07-05T00:30:39;3.45;;;2.42;;
30420;SDS011;17218;54.070;10.012;2022-07-05T00:33:05;5.32;;;2.58;;
30420;SDS011;17218;54.070;10.012;2022-07-05T00:35:32;3.45;;;2.38;;
30420;SDS011;17218;54.070;10.012;2022-07-05T00:37:58;2.50;;;2.30;;
30420;SDS011;17218;54.070;10.012;2022-07-05T00:40:26;4.47;;;2.78;;
30420;SDS011;17218;54.070;10.012;2022-07-05T00:42:53;4.68;;;2.88;;
30420;SDS011;17218;54.070;10.012;2022-07-05T00:45:19;6.35;;;2.63;;
30420;SDS011;17218;54.070;10.012;2022-07-05T00:47:46;4.72;;;2.65;;
30420;SDS011;17218;54.070;10.012;2022-07-05T00:50:13;4.93;;;2.53;;
30420;SDS011;17218;54.070;10.012;2022-07-05T00:52:40;4.72;;;2.28;;
30420;SDS011;17218;54.070;10.012;2022-07-05T00:55:07;4.93;;;2.60;;
30420;SDS011;17218;54.070;10.012;2022-07-05T00:57:35;2.75;;;2.40;;
30420;SDS011;17218;54.070;10.012;2022-07-05T01:00:03;3.53;;;2.60;;
30420;SDS011;17218;54.070;10.012;2022-07-05T01:02:31;3.63;;;2.50;;
30420;SDS011;17218;54.070;10.012;2022-07-05T01:04:57;3.83;;;2.17;;
30420;SDS011;17218;54.070;10.012;2022-07-05T01:07:25;6.65;;;3.00;;
30420;SDS011;17218;54.070;10.012;2022-07-05T01:09:52;4.72;;;2.60;;
30420;SDS011;17218;54.070;10.012;2022-07-05T01:12:19;6.13;;;2.60;;
30420;SDS011;17218;54.070;10.012;2022-07-05T01:14:46;3.95;;;2.20;;
30420;SDS011;17218;54.070;10.012;2022-07-05T01:17:14;4.55;;;2.40;;
30420;SDS011;17218;54.070;10.012;2022-07-05T01:19:42;4.88;;;2.60;;
30420;SDS011;17218;54.070;10.012;2022-07-05T01:22:11;4.88;;;2.70;;
30420;SDS011;17218;54.070;10.012;2022-07-05T01:24:43;5.15;;;2.50;;
30420;SDS011;17218;54.070;10.012;2022-07-05T01:27:10;3.95;;;2.75;;
30420;SDS011;17218;54.070;10.012;2022-07-05T01:29:37;2.30;;;2.10;;
30420;SDS011;17218;54.070;10.012;2022-07-05T01:32:04;8.18;;;2.67;;
30420;SDS011;17218;54.070;10.012;2022-07-05T01:34:31;6.55;;;3.22;;
30420;SDS011;17218;54.070;10.012;2022-07-05T01:36:58;4.80;;;3.20;;
30420;SDS011;17218;54.070;10.012;2022-07-05T01:39:25;5.97;;;2.58;;
30420;SDS011;17218;54.070;10.012;2022-07-05T01:41:53;3.67;;;2.65;;
30420;SDS011;17218;54.070;10.012;2022-07-05T01:44:20;6.13;;;2.85;;
30420;SDS011;17218;54.070;10.012;2022-07-05T01:46:46;5.15;;;3.25;;
30420;SDS011;17218;54.070;10.012;2022-07-05T01:49:20;5.20;;;3.10;;
30420;SDS011;17218;54.070;10.012;2022-07-05T01:51:50;4.28;;;3.13;;
30420;SDS011;17218;54.070;10.012;2022-07-05T01:54:20;6.15;;;3.60;;
30420;SDS011;17218;54.070;10.012;2022-07-05T01:56:47;3.22;;;2.92;;
30420;SDS011;17218;54.070;10.012;2022-07-05T01:59:15;3.30;;;3.00;;
30420;SDS011;17218;54.070;10.012;2022-07-05T02:01:41;5.15;;;3.20;;
30420;SDS011;17218;54.070;10.012;2022-07-05T02:04:09;7.97;;;3.28;;
30420;SDS011;17218;54.070;10.012;2022-07-05T02:06:36;5.85;;;2.90;;
30420;SDS011;17218;54.070;10.012;2022-07-05T02:09:04;4.20;;;3.10;;
30420;SDS011;17218;54.070;10.012;2022-07-05T02:11:32;5.65;;;3.03;;
30420;SDS011;17218;54.070;10.012;2022-07-05T02:13:58;6.35;;;3.17;;
30420;SDS011;17218;54.070;10.012;2022-07-05T02:16:28;4.57;;;3.70;;
30420;SDS011;17218;54.070;10.012;2022-07-05T02:18:55;3.47;;;3.17;;
30420;SDS011;17218;54.070;10.012;2022-07-05T02:21:21;4.00;;;2.97;;
30420;SDS011;17218;54.070;10.012;2022-07-05T02:23:48;3.65;;;3.17;;
30420;SDS011;17218;54.070;10.012;2022-07-05T02:26:15;6.97;;;3.10;;
30420;SDS011;17218;54.070;10.012;2022-07-05T02:28:42;4.57;;;3.20;;
30420;SDS011;17218;54.070;10.012;2022-07-05T02:31:08;5.22;;;3.30;;
30420;SDS011;17218;54.070;10.012;2022-07-05T02:33:36;6.93;;;3.45;;
30420;SDS011;17218;54.070;10.012;2022-07-05T02:36:07;4.88;;;3.25;;
30420;SDS011;17218;54.070;10.012;2022-07-05T02:38:35;3.83;;;3.40;;
30420;SDS011;17218;54.070;10.012;2022-07-05T02:41:03;4.22;;;3.20;;
30420;SDS011;17218;54.070;10.012;2022-07-05T02:43:31;6.45;;;3.80;;
30420;SDS011;17218;54.070;10.012;2022-07-05T02:45:58;5.95;;;3.83;;
30420;SDS011;17218;54.070;10.012;2022-07-05T02:48:25;5.55;;;3.40;;
30420;SDS011;17218;54.070;10.012;2022-07-05T02:50:53;5.30;;;3.42;;
30420;SDS011;17218;54.070;10.012;2022-07-05T02:53:19;3.55;;;2.90;;
30420;SDS011;17218;54.070;10.012;2022-07-05T02:55:46;4.72;;;3.15;;
30420;SDS011;17218;54.070;10.012;2022-07-05T02:58:12;4.45;;;3.10;;
30420;SDS011;17218;54.070;10.012;2022-07-05T03:00:39;7.90;;;4.13;;
30420;SDS011;17218;54.070;10.012;2022-07-05T03:03:05;4.47;;;3.22;;
30420;SDS011;17218;54.070;10.012;2022-07-05T03:05:32;5.47;;;3.75;;
30420;SDS011;17218;54.070;10.012;2022-07-05T03:08:00;5.70;;;4.00;;
30420;SDS011;17218;54.070;10.012;2022-07-05T03:10:26;3.63;;;3.28;;
30420;SDS011;17218;54.070;10.012;2022-07-05T03:12:53;4.88;;;3.85;;
30420;SDS011;17218;54.070;10.012;2022-07-05T03:15:20;6.80;;;3.70;;
30420;SDS011;17218;54.070;10.012;2022-07-05T03:17:46;5.70;;;3.75;;
30420;SDS011;17218;54.070;10.012;2022-07-05T03:20:13;4.85;;;3.70;;
30420;SDS011;17218;54.070;10.012;2022-07-05T03:22:39;7.15;;;3.97;;
30420;SDS011;17218;54.070;10.012;2022-07-05T03:25:08;5.25;;;3.83;;
30420;SDS011;17218;54.070;10.012;2022-07-05T03:27:35;4.22;;;3.63;;
30420;SDS011;17218;54.070;10.012;2022-07-05T03:30:02;5.03;;;3.58;;
30420;SDS011;17218;54.070;10.012;2022-07-05T03:32:29;5.20;;;3.95;;
30420;SDS011;17218;54.070;10.012;2022-07-05T03:34:55;6.15;;;3.78;;
30420;SDS011;17218;54.070;10.012;2022-07-05T03:37:22;8.18;;;3.72;;
30420;SDS011;17218;54.070;10.012;2022-07-05T03:39:49;4.32;;;3.50;;
30420;SDS011;17218;54.070;10.012;2022-07-05T03:42:17;4.18;;;3.42;;
30420;SDS011;17218;54.070;10.012;2022-07-05T03:44:43;5.00;;;3.38;;
30420;SDS011;17218;54.070;10.012;2022-07-05T03:47:10;4.50;;;2.92;;
30420;SDS011;17218;54.070;10.012;2022-07-05T03:49:36;5.40;;;3.03;;
30420;SDS011;17218;54.070;10.012;2022-07-05T03:52:03;5.40;;;3.10;;
30420;SDS011;17218;54.070;10.012;2022-07-05T03:54:30;4.32;;;3.42;;
30420;SDS011;17218;54.070;10.012;2022-07-05T03:56:56;5.40;;;4.25;;
30420;SDS011;17218;54.070;10.012;2022-07-05T03:59:24;4.97;;;3.60;;
30420;SDS011;17218;54.070;10.012;2022-07-05T04:01:51;7.32;;;3.10;;
30420;SDS011;17218;54.070;10.012;2022-07-05T04:04:17;4.15;;;3.17;;
30420;SDS011;17218;54.070;10.012;2022-07-05T04:06:44;5.18;;;3.72;;
30420;SDS011;17218;54.070;10.012;2022-07-05T04:09:10;4.57;;;3.47;;
30420;SDS011;17218;54.070;10.012;2022-07-05T04:11:37;6.97;;;3.50;;
30420;SDS011;17218;54.070;10.012;2022-07-05T04:14:04;3.55;;;3.25;;
30420;SDS011;17218;54.070;10.012;2022-07-05T04:16:32;4.57;;;4.00;;
30420;SDS011;17218;54.070;10.012;2022-07-05T04:18:58;7.15;;;4.05;;
30420;SDS011;17218;54.070;10.012;2022-07-05T04:21:25;4.78;;;3.75;;
30420;SDS011;17218;54.070;10.012;2022-07-05T04:23:51;7.07;;;3.70;;
30420;SDS011;17218;54.070;10.012;2022-07-05T04:26:18;7.55;;;4.18;;
30420;SDS011;17218;54.070;10.012;2022-07-05T04:28:44;4.30;;;3.53;;
30420;SDS011;17218;54.070;10.012;2022-07-05T04:31:11;4.13;;;3.72;;
30420;SDS011;17218;54.070;10.012;2022-07-05T04:33:39;6.03;;;4.22;;
30420;SDS011;17218;54.070;10.012;2022-07-05T04:36:06;3.75;;;3.40;;
30420;SDS011;17218;54.070;10.012;2022-07-05T04:38:33;6.57;;;4.05;;
30420;SDS011;17218;54.070;10.012;2022-07-05T04:40:59;5.72;;;3.92;;
30420;SDS011;17218;54.070;10.012;2022-07-05T04:43:26;4.15;;;3.67;;
30420;SDS011;17218;54.070;10.012;2022-07-05T04:45:52;7.10;;;3.10;;
30420;SDS011;17218;54.070;10.012;2022-07-05T04:48:19;6.40;;;3.40;;
30420;SDS011;17218;54.070;10.012;2022-07-05T04:50:47;5.68;;;2.95;;
30420;SDS011;17218;54.070;10.012;2022-07-05T04:53:13;7.60;;;3.55;;
30420;SDS011;17218;54.070;10.012;2022-07-05T04:55:40;3.35;;;2.92;;
30420;SDS011;17218;54.070;10.012;2022-07-05T04:58:06;7.57;;;3.30;;
30420;SDS011;17218;54.070;10.012;2022-07-05T05:00:33;5.40;;;2.97;;
30420;SDS011;17218;54.070;10.012;2022-07-05T05:03:00;3.42;;;2.55;;
30420;SDS011;17218;54.070;10.012;2022-07-05T05:05:26;4.28;;;2.72;;
30420;SDS011;17218;54.070;10.012;2022-07-05T05:07:54;3.55;;;2.92;;
30420;SDS011;17218;54.070;10.012;2022-07-05T05:10:21;6.50;;;3.05;;
30420;SDS011;17218;54.070;10.012;2022-07-05T05:12:48;6.05;;;2.80;;
30420;SDS011;17218;54.070;10.012;2022-07-05T05:15:14;9.05;;;3.15;;
30420;SDS011;17218;54.070;10.012;2022-07-05T05:17:42;5.22;;;2.92;;
30420;SDS011;17218;54.070;10.012;2022-07-05T05:20:10;4.80;;;3.78;;
30420;SDS011;17218;54.070;10.012;2022-07-05T05:22:38;5.95;;;2.80;;
30420;SDS011;17218;54.070;10.012;2022-07-05T05:25:06;6.32;;;3.30;;
30420;SDS011;17218;54.070;10.012;2022-07-05T05:27:34;8.70;;;2.70;;
30420;SDS011;17218;54.070;10.012;2022-07-05T05:30:01;4.55;;;2.58;;
30420;SDS011;17218;54.070;10.012;2022-07-05T05:32:28;3.55;;;2.78;;
30420;SDS011;17218;54.070;10.012;2022-07-05T05:34:54;6.05;;;2.60;;
30420;SDS011;17218;54.070;10.012;2022-07-05T05:37:21;4.45;;;2.50;;
30420;SDS011;17218;54.070;10.012;2022-07-05T05:39:47;6.15;;;2.45;;
30420;SDS011;17218;54.070;10.012;2022-07-05T05:42:15;5.60;;;2.70;;
30420;SDS011;17218;54.070;10.012;2022-07-05T05:44:42;7.03;;;2.70;;
30420;SDS011;17218;54.070;10.012;2022-07-05T05:47:08;3.95;;;2.45;;
30420;SDS011;17218;54.070;10.012;2022-07-05T05:49:35;7.45;;;3.00;;
30420;SDS011;17218;54.070;10.012;2022-07-05T05:52:02;7.20;;;2.60;;
30420;SDS011;17218;54.070;10.012;2022-07-05T05:54:28;4.57;;;2.28;;
30420;SDS011;17218;54.070;10.012;2022-07-05T05:56:55;4.43;;;2.72;;
30420;SDS011;17218;54.070;10.012;2022-07-05T05:59:23;4.32;;;2.38;;
30420;SDS011;17218;54.070;10.012;2022-07-05T06:01:49;4.63;;;2.42;;
30420;SDS011;17218;54.070;10.012;2022-07-05T06:04:16;6.63;;;2.63;;
30420;SDS011;17218;54.070;10.012;2022-07-05T06:06:43;5.35;;;2.40;;
30420;SDS011;17218;54.070;10.012;2022-07-05T06:09:09;7.50;;;2.38;;
30420;SDS011;17218;54.070;10.012;2022-07-05T06:11:36;3.67;;;2.15;;
30420;SDS011;17218;54.070;10.012;2022-07-05T06:14:02;5.00;;;2.10;;
30420;SDS011;17218;54.070;10.012;2022-07-05T06:16:31;7.50;;;2.67;;
30420;SDS011;17218;54.070;10.012;2022-07-05T06:18:57;4.57;;;1.95;;
30420;SDS011;17218;54.070;10.012;2022-07-05T06:21:24;4.28;;;1.95;;
30420;SDS011;17218;54.070;10.012;2022-07-05T06:23:50;4.03;;;1.90;;
30420;SDS011;17218;54.070;10.012;2022-07-05T06:26:17;4.70;;;2.20;;
30420;SDS011;17218;54.070;10.012;2022-07-05T06:28:43;4.35;;;1.95;;
30420;SDS011;17218;54.070;10.012;2022-07-05T06:31:10;3.95;;;1.85;;
30420;SDS011;17218;54.070;10.012;2022-07-05T06:33:38;6.32;;;2.28;;
30420;SDS011;17218;54.070;10.012;2022-07-05T06:36:04;2.88;;;1.88;;
30420;SDS011;17218;54.070;10.012;2022-07-05T06:38:31;3.88;;;2.00;;
30420;SDS011;17218;54.070;10.012;2022-07-05T06:40:58;4.05;;;2.13;;
30420;SDS011;17218;54.070;10.012;2022-07-05T06:43:25;6.93;;;2.58;;
30420;SDS011;17218;54.070;10.012;2022-07-05T06:45:52;3.70;;;2.00;;
30420;SDS011;17218;54.070;10.012;2022-07-05T06:48:19;2.38;;;2.17;;
30420;SDS011;17218;54.070;10.012;2022-07-05T06:50:47;3.30;;;2.22;;
30420;SDS011;17218;54.070;10.012;2022-07-05T06:53:13;2.70;;;1.88;;
30420;SDS011;17218;54.070;10.012;2022-07-05T06:55:40;4.82;;;2.72;;
30420;SDS011;17218;54.070;10.012;2022-07-05T06:58:09;4.43;;;2.25;;
30420;SDS011;17218;54.070;10.012;2022-07-05T07:00:37;3.60;;;2.00;;
30420;SDS011;17218;54.070;10.012;2022-07-05T07:03:04;4.50;;;2.00;;
30420;SDS011;17218;54.070;10.012;2022-07-05T07:05:31;3.00;;;1.88;;
30420;SDS011;17218;54.070;10.012;2022-07-05T07:07:58;3.80;;;2.05;;
30420;SDS011;17218;54.070;10.012;2022-07-05T07:10:42;3.33;;;1.80;;
30420;SDS011;17218;54.070;10.012;2022-07-05T07:13:09;2.80;;;1.80;;
30420;SDS011;17218;54.070;10.012;2022-07-05T07:15:35;3.45;;;1.90;;
30420;SDS011;17218;54.070;10.012;2022-07-05T07:18:04;4.80;;;2.20;;
30420;SDS011;17218;54.070;10.012;2022-07-05T07:20:31;4.43;;;2.05;;
30420;SDS011;17218;54.070;10.012;2022-07-05T07:22:59;3.80;;;1.73;;
30420;SDS011;17218;54.070;10.012;2022-07-05T07:25:25;4.72;;;2.00;;
30420;SDS011;17218;54.070;10.012;2022-07-05T07:27:52;5.40;;;2.25;;
30420;SDS011;17218;54.070;10.012;2022-07-05T07:30:22;5.13;;;2.17;;
30420;SDS011;17218;54.070;10.012;2022-07-05T07:32:50;4.43;;;1.60;;
30420;SDS011;17218;54.070;10.012;2022-07-05T07:35:17;4.32;;;1.60;;
30420;SDS011;17218;54.070;10.012;2022-07-05T07:37:44;3.90;;;1.42;;
30420;SDS011;17218;54.070;10.012;2022-07-05T07:40:12;3.30;;;1.70;;
30420;SDS011;17218;54.070;10.012;2022-07-05T07:42:39;4.20;;;1.33;;
30420;SDS011;17218;54.070;10.012;2022-07-05T07:45:06;3.10;;;1.50;;
30420;SDS011;17218;54.070;10.012;2022-07-05T07:47:34;4.88;;;1.45;;
30420;SDS011;17218;54.070;10.012;2022-07-05T07:50:02;2.80;;;1.25;;
30420;SDS011;17218;54.070;10.012;2022-07-05T07:52:30;4.72;;;1.35;;
30420;SDS011;17218;54.070;10.012;2022-07-05T07:54:58;4.97;;;1.30;;
30420;SDS011;17218;54.070;10.012;2022-07-05T07:57:26;3.58;;;1.05;;
30420;SDS011;17218;54.070;10.012;2022-07-05T07:59:52;2.75;;;1.33;;
30420;SDS011;17218;54.070;10.012;2022-07-05T08:02:19;6.18;;;1.52;;
30420;SDS011;17218;54.070;10.012;2022-07-05T08:04:48;4.30;;;1.20;;
30420;SDS011;17218;54.070;10.012;2022-07-05T08:07:15;2.00;;;0.80;;
30420;SDS011;17218;54.070;10.012;2022-07-05T08:09:42;2.72;;;0.80;;
30420;SDS011;17218;54.070;10.012;2022-07-05T08:12:09;2.13;;;0.85;;
30420;SDS011;17218;54.070;10.012;2022-07-05T08:14:37;5.00;;;1.10;;
30420;SDS011;17218;54.070;10.012;2022-07-05T08:17:04;2.92;;;0.85;;
30420;SDS011;17218;54.070;10.012;2022-07-05T08:19:33;2.55;;;0.80;;
30420;SDS011;17218;54.070;10.012;2022-07-05T08:22:17;2.53;;;1.17;;
30420;SDS011;17218;54.070;10.012;2022-07-05T08:24:44;3.13;;;0.93;;
30420;SDS011;17218;54.070;10.012;2022-07-05T08:27:12;3.55;;;1.15;;
30420;SDS011;17218;54.070;10.012;2022-07-05T08:29:40;1.70;;;0.95;;
30420;SDS011;17218;54.070;10.012;2022-07-05T08:32:07;2.47;;;1.10;;
30420;SDS011;17218;54.070;10.012;2022-07-05T08:34:34;6.88;;;1.50;;
30420;SDS011;17218;54.070;10.012;2022-07-05T08:37:01;1.52;;;0.90;;
30420;SDS011;17218;54.070;10.012;2022-07-05T08:39:28;2.88;;;1.10;;
30420;SDS011;17218;54.070;10.012;2022-07-05T08:41:55;3.42;;;1.13;;
30420;SDS011;17218;54.070;10.012;2022-07-05T08:44:23;3.70;;;0.93;;
30420;SDS011;17218;54.070;10.012;2022-07-05T08:46:51;5.28;;;1.92;;
30420;SDS011;17218;54.070;10.012;2022-07-05T08:49:20;5.47;;;1.20;;
30420;SDS011;17218;54.070;10.012;2022-07-05T08:51:49;3.78;;;1.77;;
30420;SDS011;17218;54.070;10.012;2022-07-05T08:54:16;3.00;;;1.90;;
30420;SDS011;17218;54.070;10.012;2022-07-05T08:56:43;3.20;;;1.10;;
30420;SDS011;17218;54.070;10.012;2022-07-05T08:59:10;3.35;;;1.25;;
30420;SDS011;17218;54.070;10.012;2022-07-05T09:01:36;3.58;;;1.10;;
30420;SDS011;17218;54.070;10.012;2022-07-05T09:04:06;4.95;;;1.10;;
30420;SDS011;17218;54.070;10.012;2022-07-05T09:06:35;3.03;;;0.95;;
30420;SDS011;17218;54.070;10.012;2022-07-05T09:09:02;2.65;;;1.10;;
30420;SDS011;17218;54.070;10.012;2022-07-05T09:11:31;2.35;;;0.95;;
30420;SDS011;17218;54.070;10.012;2022-07-05T09:14:02;2.22;;;0.85;;
30420;SDS011;17218;54.070;10.012;2022-07-05T09:16:29;6.28;;;1.00;;
30420;SDS011;17218;54.070;10.012;2022-07-05T09:18:56;5.65;;;1.17;;
30420;SDS011;17218;54.070;10.012;2022-07-05T09:21:31;2.95;;;1.00;;
30420;SDS011;17218;54.070;10.012;2022-07-05T09:23:58;2.65;;;0.82;;
30420;SDS011;17218;54.070;10.012;2022-07-05T09:26:30;1.30;;;0.80;;
30420;SDS011;17218;54.070;10.012;2022-07-05T09:28:58;2.22;;;1.08;;
30420;SDS011;17218;54.070;10.012;2022-07-05T09:31:26;0.90;;;0.80;;
30420;SDS011;17218;54.070;10.012;2022-07-05T09:34:05;1.90;;;0.95;;
30420;SDS011;17218;54.070;10.012;2022-07-05T09:36:46;3.13;;;1.10;;
30420;SDS011;17218;54.070;10.012;2022-07-05T09:39:13;1.20;;;0.70;;
30420;SDS011;17218;54.070;10.012;2022-07-05T09:41:40;3.72;;;0.80;;
30420;SDS011;17218;54.070;10.012;2022-07-05T09:44:07;3.42;;;0.88;;
30420;SDS011;17218;54.070;10.012;2022-07-05T09:46:33;2.33;;;0.98;;
30420;SDS011;17218;54.070;10.012;2022-07-05T09:49:00;1.00;;;0.90;;
30420;SDS011;17218;54.070;10.012;2022-07-05T09:51:28;2.03;;;0.88;;
30420;SDS011;17218;54.070;10.012;2022-07-05T09:53:55;2.15;;;1.00;;
30420;SDS011;17218;54.070;10.012;2022-07-05T09:56:23;1.35;;;0.85;;
30420;SDS011;17218;54.070;10.012;2022-07-05T09:58:54;1.75;;;0.57;;
30420;SDS011;17218;54.070;10.012;2022-07-05T10:01:24;0.98;;;0.70;;
30420;SDS011;17218;54.070;10.012;2022-07-05T10:03:52;3.03;;;0.70;;
30420;SDS011;17218;54.070;10.012;2022-07-05T10:06:19;2.22;;;0.73;;
30420;SDS011;17218;54.070;10.012;2022-07-05T10:08:50;3.40;;;1.05;;
30420;SDS011;17218;54.070;10.012;2022-07-05T10:11:18;3.20;;;1.15;;
30420;SDS011;17218;54.070;10.012;2022-07-05T10:13:45;1.55;;;0.57;;
30420;SDS011;17218;54.070;10.012;2022-07-05T10:16:15;2.67;;;0.70;;
30420;SDS011;17218;54.070;10.012;2022-07-05T10:18:43;3.00;;;0.90;;
30420;SDS011;17218;54.070;10.012;2022-07-05T10:21:12;0.88;;;0.68;;
30420;SDS011;17218;54.070;10.012;2022-07-05T10:23:41;2.38;;;0.90;;
30420;SDS011;17218;54.070;10.012;2022-07-05T10:26:11;1.45;;;0.50;;
30420;SDS011;17218;54.070;10.012;2022-07-05T10:28:39;2.78;;;0.70;;
30420;SDS011;17218;54.070;10.012;2022-07-05T10:31:07;2.40;;;0.68;;
30420;SDS011;17218;54.070;10.012;2022-07-05T10:33:34;2.05;;;1.08;;
30420;SDS011;17218;54.070;10.012;2022-07-05T10:36:01;1.80;;;0.63;;
30420;SDS011;17218;54.070;10.012;2022-07-05T10:38:28;1.65;;;0.70;;
30420;SDS011;17218;54.070;10.012;2022-07-05T10:40:57;3.25;;;0.60;;
30420;SDS011;17218;54.070;10.012;2022-07-05T10:43:29;1.77;;;0.73;;
30420;SDS011;17218;54.070;10.012;2022-07-05T10:45:55;3.00;;;0.77;;
30420;SDS011;17218;54.070;10.012;2022-07-05T10:48:23;4.72;;;0.90;;
30420;SDS011;17218;54.070;10.012;2022-07-05T10:50:50;2.90;;;0.75;;
30420;SDS011;17218;54.070;10.012;2022-07-05T10:53:18;1.92;;;0.70;;
30420;SDS011;17218;54.070;10.012;2022-07-05T10:55:50;2.47;;;0.90;;
30420;SDS011;17218;54.070;10.012;2022-07-05T10:58:22;2.90;;;0.70;;
30420;SDS011;17218;54.070;10.012;2022-07-05T11:04:13;4.40;;;0.80;;
30420;SDS011;17218;54.070;10.012;2022-07-05T11:06:45;3.45;;;0.88;;
30420;SDS011;17218;54.070;10.012;2022-07-05T11:09:15;2.00;;;0.70;;
30420;SDS011;17218;54.070;10.012;2022-07-05T11:11:44;2.05;;;0.60;;
30420;SDS011;17218;54.070;10.012;2022-07-05T11:14:31;1.25;;;0.60;;
30420;SDS011;17218;54.070;10.012;2022-07-05T11:17:12;3.58;;;1.08;;
30420;SDS011;17218;54.070;10.012;2022-07-05T11:19:59;1.65;;;0.65;;
30420;SDS011;17218;54.070;10.012;2022-07-05T11:22:31;2.78;;;0.90;;
30420;SDS011;17218;54.070;10.012;2022-07-05T11:24:58;1.10;;;0.60;;
30420;SDS011;17218;54.070;10.012;2022-07-05T11:27:26;1.98;;;0.57;;
30420;SDS011;17218;54.070;10.012;2022-07-05T11:29:53;2.80;;;0.77;;
30420;SDS011;17218;54.070;10.012;2022-07-05T11:32:21;3.20;;;0.68;;
30420;SDS011;17218;54.070;10.012;2022-07-05T11:34:49;2.88;;;0.68;;
30420;SDS011;17218;54.070;10.012;2022-07-05T11:37:21;1.92;;;0.60;;
30420;SDS011;17218;54.070;10.012;2022-07-05T11:42:54;2.90;;;0.88;;
30420;SDS011;17218;54.070;10.012;2022-07-05T11:45:21;2.40;;;0.65;;
30420;SDS011;17218;54.070;10.012;2022-07-05T11:47:47;1.65;;;0.70;;
30420;SDS011;17218;54.070;10.012;2022-07-05T11:50:14;3.88;;;0.85;;
30420;SDS011;17218;54.070;10.012;2022-07-05T11:52:42;3.28;;;0.93;;
30420;SDS011;17218;54.070;10.012;2022-07-05T11:55:10;1.15;;;0.65;;
30420;SDS011;17218;54.070;10.012;2022-07-05T11:57:38;1.25;;;0.63;;
30420;SDS011;17218;54.070;10.012;2022-07-05T12:00:24;1.30;;;0.68;;
30420;SDS011;17218;54.070;10.012;2022-07-05T12:02:55;1.67;;;0.60;;
30420;SDS011;17218;54.070;10.012;2022-07-05T12:05:22;2.80;;;0.70;;
30420;SDS011;17218;54.070;10.012;2022-07-05T12:07:50;1.35;;;0.60;;
30420;SDS011;17218;54.070;10.012;2022-07-05T12:10:18;0.85;;;0.40;;
30420;SDS011;17218;54.070;10.012;2022-07-05T12:13:04;2.30;;;0.60;;
30420;SDS011;17218;54.070;10.012;2022-07-05T12:15:31;3.63;;;0.70;;
30420;SDS011;17218;54.070;10.012;2022-07-05T12:17:59;2.45;;;0.95;;
30420;SDS011;17218;54.070;10.012;2022-07-05T12:20:28;3.83;;;1.00;;
30420;SDS011;17218;54.070;10.012;2022-07-05T12:22:57;3.00;;;1.02;;
30420;SDS011;17218;54.070;10.012;2022-07-05T12:25:25;3.22;;;1.05;;
30420;SDS011;17218;54.070;10.012;2022-07-05T12:27:53;2.30;;;0.73;;
30420;SDS011;17218;54.070;10.012;2022-07-05T12:30:21;1.88;;;0.95;;
30420;SDS011;17218;54.070;10.012;2022-07-05T12:35:35;2.22;;;0.75;;
30420;SDS011;17218;54.070;10.012;2022-07-05T12:38:07;2.78;;;0.70;;
30420;SDS011;17218;54.070;10.012;2022-07-05T12:40:35;2.83;;;0.75;;
30420;SDS011;17218;54.070;10.012;2022-07-05T12:43:04;1.42;;;0.70;;
30420;SDS011;17218;54.070;10.012;2022-07-05T12:45:32;1.85;;;0.60;;
30420;SDS011;17218;54.070;10.012;2022-07-05T12:47:59;2.80;;;0.75;;
30420;SDS011;17218;54.070;10.012;2022-07-05T12:50:27;1.50;;;0.60;;
30420;SDS011;17218;54.070;10.012;2022-07-05T12:52:57;1.10;;;0.50;;
30420;SDS011;17218;54.070;10.012;2022-07-05T12:55:26;2.80;;;0.70;;
30420;SDS011;17218;54.070;10.012;2022-07-05T12:58:17;3.50;;;0.80;;
30420;SDS011;17218;54.070;10.012;2022-07-05T13:00:44;3.10;;;0.90;;
30420;SDS011;17218;54.070;10.012;2022-07-05T13:03:10;1.10;;;0.50;;
30420;SDS011;17218;54.070;10.012;2022-07-05T13:05:37;1.40;;;0.57;;
30420;SDS011;17218;54.070;10.012;2022-07-05T13:08:04;3.60;;;0.85;;
30420;SDS011;17218;54.070;10.012;2022-07-05T13:10:32;3.80;;;0.90;;
30420;SDS011;17218;54.070;10.012;2022-07-05T13:12:58;0.88;;;0.68;;
30420;SDS011;17218;54.070;10.012;2022-07-05T13:15:27;2.95;;;0.80;;
30420;SDS011;17218;54.070;10.012;2022-07-05T13:17:53;1.35;;;0.60;;
30420;SDS011;17218;54.070;10.012;2022-07-05T13:20:20;4.07;;;1.20;;
30420;SDS011;17218;54.070;10.012;2022-07-05T13:22:48;1.42;;;0.85;;
30420;SDS011;17218;54.070;10.012;2022-07-05T13:25:15;6.10;;;0.85;;
30420;SDS011;17218;54.070;10.012;2022-07-05T13:27:43;2.55;;;0.68;;
30420;SDS011;17218;54.070;10.012;2022-07-05T13:30:10;3.97;;;1.00;;
30420;SDS011;17218;54.070;10.012;2022-07-05T13:32:38;2.45;;;0.80;;
30420;SDS011;17218;54.070;10.012;2022-07-05T13:35:05;1.60;;;0.75;;
30420;SDS011;17218;54.070;10.012;2022-07-05T13:37:33;2.38;;;0.77;;
30420;SDS011;17218;54.070;10.012;2022-07-05T13:39:59;2.38;;;0.63;;
30420;SDS011;17218;54.070;10.012;2022-07-05T13:42:26;1.45;;;0.70;;
30420;SDS011;17218;54.070;10.012;2022-07-05T13:44:54;1.80;;;0.63;;
30420;SDS011;17218;54.070;10.012;2022-07-05T13:47:20;1.48;;;1.00;;
30420;SDS011;17218;54.070;10.012;2022-07-05T13:49:47;4.10;;;0.77;;
30420;SDS011;17218;54.070;10.012;2022-07-05T13:52:13;1.85;;;0.70;;
30420;SDS011;17218;54.070;10.012;2022-07-05T13:54:40;2.63;;;0.80;;
30420;SDS011;17218;54.070;10.012;2022-07-05T13:57:08;5.70;;;0.90;;
30420;SDS011;17218;54.070;10.012;2022-07-05T13:59:34;1.38;;;0.70;;
30420;SDS011;17218;54.070;10.012;2022-07-05T14:02:03;2.08;;;1.23;;
30420;SDS011;17218;54.070;10.012;2022-07-05T14:04:29;2.15;;;0.90;;
30420;SDS011;17218;54.070;10.012;2022-07-05T14:06:58;2.20;;;0.80;;
30420;SDS011;17218;54.070;10.012;2022-07-05T14:09:25;2.03;;;0.82;;
30420;SDS011;17218;54.070;10.012;2022-07-05T14:11:51;2.17;;;1.10;;
30420;SDS011;17218;54.070;10.012;2022-07-05T14:14:18;4.00;;;1.35;;
30420;SDS011;17218;54.070;10.012;2022-07-05T14:16:44;1.55;;;0.85;;
30420;SDS011;17218;54.070;10.012;2022-07-05T14:19:12;4.43;;;1.50;;
30420;SDS011;17218;54.070;10.012;2022-07-05T14:21:39;4.10;;;1.52;;
30420;SDS011;17218;54.070;10.012;2022-07-05T14:24:10;2.63;;;0.90;;
30420;SDS011;17218;54.070;10.012;2022-07-05T14:26:36;2.13;;;0.90;;
30420;SDS011;17218;54.070;10.012;2022-07-05T14:29:04;3.33;;;1.00;;
30420;SDS011;17218;54.070;10.012;2022-07-05T14:31:31;2.17;;;0.75;;
30420;SDS011;17218;54.070;10.012;2022-07-05T14:33:58;3.15;;;1.33;;
30420;SDS011;17218;54.070;10.012;2022-07-05T14:36:26;1.10;;;0.68;;
30420;SDS011;17218;54.070;10.012;2022-07-05T14:38:53;3.15;;;0.93;;
30420;SDS011;17218;54.070;10.012;2022-07-05T14:41:20;2.95;;;0.80;;
30420;SDS011;17218;54.070;10.012;2022-07-05T14:43:46;2.55;;;0.98;;
30420;SDS011;17218;54.070;10.012;2022-07-05T14:46:13;5.38;;;1.10;;